Time;durP1;ratioP1;P1;durP2;ratioP2;P2;SDS_P1;SDS_P2;PMS_P1;PMS_P2;Temp;Humidity;BMP_temperature;BMP_pressure;BME280_temperature;BME280_humidity;BME280_pressure;Samples;Min_cycle;Max_cycle;Signal;HPM_P1;HPM_P2
2023/01/16 00:00:27;;;;;;;1.98;1.05;;;;;;;3.59;100.00;99335.08;4880104;58;1135023;-76
2023/01/16 00:05:34;;;;;;;1.50;1.07;;;;;;;3.58;100.00;99319.87;4930489;57;1134780;-77
2023/01/16 00:10:40;;;;;;;4.47;1.47;;;;;;;3.52;100.00;99329.42;4945309;57;1134786;-74
2023/01/16 00:15:49;;;;;;;2.90;1.07;;;;;;;3.51;100.00;99333.81;4933627;57;1134483;-72
2023/01/16 00:20:55;;;;;;;9.30;1.10;;;;;;;3.47;100.00;99325.00;4929158;57;1134464;-75
2023/01/16 00:26:03;;;;;;;1.63;1.00;;;;;;;3.47;100.00;99325.00;4841520;58;1134611;-82
2023/01/16 00:31:09;;;;;;;3.03;1.33;;;;;;;3.48;100.00;99325.36;4792918;59;1134540;-76
2023/01/16 00:36:15;;;;;;;2.93;0.77;;;;;;;3.45;100.00;99322.95;4756299;59;1134812;-75
2023/01/16 00:41:21;;;;;;;5.87;1.37;;;;;;;3.44;100.00;99329.95;4815588;60;1134610;-76
2023/01/16 00:46:29;;;;;;;1.73;0.80;;;;;;;3.42;100.00;99326.59;5006123;57;1134616;-74
2023/01/16 00:51:34;;;;;;;1.55;1.10;;;;;;;3.39;100.00;99326.80;4911833;58;1134603;-76
2023/01/16 00:56:40;;;;;;;1.23;1.00;;;;;;;3.39;100.00;99312.89;4997846;57;1134564;-73
2023/01/16 01:01:47;;;;;;;1.83;0.70;;;;;;;3.39;100.00;99319.42;4957791;57;1134728;-72
2023/01/16 01:06:53;;;;;;;3.27;1.00;;;;;;;3.36;100.00;99322.27;4944434;57;1134715;-80
2023/01/16 01:12:00;;;;;;;1.65;0.80;;;;;;;3.36;100.00;99313.94;4939439;57;1134752;-81
2023/01/16 01:17:10;;;;;;;3.13;1.33;;;;;;;3.32;100.00;99312.95;4972807;57;1134695;-81
2023/01/16 01:22:15;;;;;;;3.67;1.10;;;;;;;3.31;100.00;99313.89;4929464;57;1134741;-71
2023/01/16 01:27:22;;;;;;;2.10;0.80;;;;;;;3.28;100.00;99314.93;4832979;59;1134570;-74
2023/01/16 01:32:28;;;;;;;1.82;0.82;;;;;;;3.27;100.00;99302.80;4943883;58;1134723;-71
2023/01/16 01:37:34;;;;;;;3.83;1.07;;;;;;;3.28;100.00;99320.63;4957675;57;1134557;-71
2023/01/16 01:42:51;;;;;;;5.00;1.10;;;;;;;3.30;100.00;99318.28;4945219;57;1134848;-76
2023/01/16 01:48:11;;;;;;;2.30;1.07;;;;;;;3.34;100.00;99306.70;4945089;57;1134704;-73
2023/01/16 01:53:49;;;;;;;2.67;0.93;;;;;;;3.34;100.00;99300.63;4964764;57;1134514;-80
2023/01/16 01:58:59;;;;;;;1.80;0.70;;;;;;;3.37;100.00;99288.64;4966762;57;1134708;-74
2023/01/16 02:04:09;;;;;;;1.60;0.77;;;;;;;3.35;100.00;99297.91;4967250;58;1134787;-74
2023/01/16 02:09:16;;;;;;;5.03;1.27;;;;;;;3.35;100.00;99307.06;4986324;58;1134624;-73
2023/01/16 02:14:24;;;;;;;6.33;0.93;;;;;;;3.35;100.00;99299.22;4966899;57;1134626;-76
2023/01/16 02:19:54;;;;;;;5.97;1.40;;;;;;;3.33;100.00;99291.11;4966788;57;1134727;-71
2023/01/16 02:25:48;;;;;;;3.63;1.10;;;;;;;3.34;100.00;99298.02;4932550;57;1134759;-77
2023/01/16 02:31:01;;;;;;;2.50;1.30;;;;;;;3.32;100.00;99304.65;4967285;57;1142888;-76
2023/01/16 02:36:17;;;;;;;7.50;1.40;;;;;;;3.31;100.00;99305.59;4986628;57;1134800;-82
2023/01/16 02:41:30;;;;;;;4.80;1.27;;;;;;;3.27;100.00;99300.19;5003306;56;1134702;-76
2023/01/16 02:47:07;;;;;;;6.30;1.20;;;;;;;3.25;100.00;99299.45;5041962;57;1134656;-74
2023/01/16 02:52:26;;;;;;;2.33;1.30;;;;;;;3.23;100.00;99292.18;4946984;58;1134549;-74
2023/01/16 02:57:36;;;;;;;1.97;1.03;;;;;;;3.18;100.00;99293.81;4879730;59;1134767;-73
2023/01/16 03:02:42;;;;;;;3.30;1.50;;;;;;;3.18;100.00;99293.81;4854066;59;1134728;-73
2023/01/16 03:08:17;;;;;;;2.20;1.17;;;;;;;3.16;100.00;99305.30;4854173;59;1134683;-75
2023/01/16 03:13:48;;;;;;;2.37;1.07;;;;;;;3.15;100.00;99298.41;4777896;60;1134758;-80
2023/01/16 03:18:59;;;;;;;0.93;0.93;;;;;;;3.13;100.00;99297.20;4817248;59;1134791;-80
2023/01/16 03:24:29;;;;;;;4.73;1.50;;;;;;;3.13;100.00;99299.81;4835488;59;1134714;-70
2023/01/16 03:29:49;;;;;;;2.52;1.32;;;;;;;3.12;100.00;99299.44;4825095;60;1134719;-76
2023/01/16 03:35:04;;;;;;;1.50;1.10;;;;;;;3.12;100.00;99292.07;4763395;60;1134767;-77
2023/01/16 03:40:15;;;;;;;6.17;1.42;;;;;;;3.13;100.00;99291.13;4750814;60;1134754;-77
2023/01/16 03:45:52;;;;;;;2.40;1.20;;;;;;;3.10;100.00;99288.72;4871981;59;1210267;-75
2023/01/16 03:51:02;;;;;;;3.17;1.23;;;;;;;3.11;100.00;99300.37;4854306;59;1134823;-75
2023/01/16 03:56:18;;;;;;;2.40;1.37;;;;;;;3.09;100.00;99293.58;4811802;60;1134719;-72
2023/01/16 04:01:50;;;;;;;2.52;1.20;;;;;;;3.06;100.00;99294.61;4790470;59;1134668;-73
2023/01/16 04:07:18;;;;;;;2.43;1.00;;;;;;;3.02;100.00;99298.39;4557676;62;1134669;-73
2023/01/16 04:12:36;;;;;;;1.30;1.00;;;;;;;3.01;100.00;99293.27;4678364;60;1134649;-74
2023/01/16 04:17:43;;;;;;;3.20;1.30;;;;;;;2.98;100.00;99289.54;4727765;60;1134646;-75
2023/01/16 04:22:50;;;;;;;0.60;0.60;;;;;;;2.93;100.00;99291.61;4639925;58;1135176;-74
2023/01/16 04:27:56;;;;;;;3.33;1.17;;;;;;;2.92;100.00;99285.55;4579265;60;1134739;-70
2023/01/16 04:33:06;;;;;;;1.47;1.30;;;;;;;2.89;100.00;99272.72;4582974;60;1134661;-73
2023/01/16 04:38:12;;;;;;;2.77;0.80;;;;;;;2.92;100.00;99272.48;4773016;57;1134599;-78
2023/01/16 04:43:18;;;;;;;12.83;3.50;;;;;;;2.92;100.00;99269.04;4854403;57;1134587;-80
2023/01/16 04:48:23;;;;;;;2.50;0.93;;;;;;;2.89;100.00;99267.97;4814191;58;1136740;-78
2023/01/16 04:53:29;;;;;;;5.33;1.10;;;;;;;2.87;100.00;99265.91;4798324;59;1134716;-76
2023/01/16 04:58:34;;;;;;;3.40;1.20;;;;;;;2.85;100.00;99269.09;4724481;59;1134717;-73
2023/01/16 05:03:41;;;;;;;3.77;1.50;;;;;;;2.82;100.00;99266.21;4739654;58;1134558;-70
2023/01/16 05:08:47;;;;;;;2.77;1.35;;;;;;;2.74;100.00;99258.90;4825888;58;1134631;-80
2023/01/16 05:13:53;;;;;;;2.20;1.40;;;;;;;2.68;100.00;99257.14;4892889;58;1134591;-72
2023/01/16 05:18:59;;;;;;;6.80;1.32;;;;;;;2.59;100.00;99248.16;4887327;58;1134777;-76
2023/01/16 05:24:05;;;;;;;5.07;1.40;;;;;;;2.50;100.00;99247.89;4912264;58;1134815;-76
2023/01/16 05:29:11;;;;;;;2.10;1.20;;;;;;;2.45;100.00;99244.27;4758293;59;1134748;-70
2023/01/16 05:34:17;;;;;;;3.73;1.43;;;;;;;2.37;100.00;99235.65;4698717;61;1134765;-74
2023/01/16 05:39:23;;;;;;;2.77;1.87;;;;;;;2.31;100.00;99231.28;4647096;61;1134699;-76
2023/01/16 05:44:28;;;;;;;2.75;1.50;;;;;;;2.24;100.00;99228.70;4726774;60;1134579;-83
2023/01/16 05:49:34;;;;;;;3.67;1.80;;;;;;;2.16;100.00;99225.27;4774287;59;1134693;-77
2023/01/16 05:54:40;;;;;;;3.47;1.80;;;;;;;2.07;100.00;99219.34;4753901;60;1134605;-79
2023/01/16 05:59:51;;;;;;;4.17;2.23;;;;;;;2.02;100.00;99212.27;4762130;60;1134779;-81
2023/01/16 06:04:57;;;;;;;5.17;1.70;;;;;;;1.98;100.00;99217.34;4815693;58;1134747;-74
2023/01/16 06:10:03;;;;;;;5.12;1.65;;;;;;;1.94;100.00;99210.17;4749252;59;1134897;-75
2023/01/16 06:15:09;;;;;;;2.07;1.23;;;;;;;1.94;100.00;99208.03;4782281;59;1134703;-80
2023/01/16 06:20:16;;;;;;;5.43;1.40;;;;;;;1.91;100.00;99203.00;4812600;58;1134580;-71
2023/01/16 06:25:21;;;;;;;4.43;1.70;;;;;;;1.88;100.00;99205.33;4802032;58;1134682;-80
2023/01/16 06:30:27;;;;;;;8.57;2.17;;;;;;;1.90;100.00;99203.47;4904676;58;1134695;-77
2023/01/16 06:35:35;;;;;;;5.58;2.02;;;;;;;1.91;100.00;99190.80;4779343;59;1134756;-68
2023/01/16 06:40:44;;;;;;;3.42;1.27;;;;;;;1.94;100.00;99193.69;4859143;58;1134888;-78
2023/01/16 06:45:49;;;;;;;3.17;1.90;;;;;;;1.92;100.00;99192.94;4828106;58;1134708;-80
2023/01/16 06:50:56;;;;;;;2.23;1.63;;;;;;;1.93;100.00;99197.23;4781459;58;1135034;-77
2023/01/16 06:56:02;;;;;;;4.87;2.23;;;;;;;1.98;100.00;99196.02;4746935;59;1134718;-74
2023/01/16 07:01:08;;;;;;;5.57;1.83;;;;;;;2.04;100.00;99189.55;4797682;58;1135015;-72
2023/01/16 07:06:13;;;;;;;9.27;4.63;;;;;;;2.03;100.00;99190.02;4676020;60;1134679;-76
2023/01/16 07:11:20;;;;;;;6.60;2.60;;;;;;;2.07;100.00;99188.89;4675728;60;1134645;-75
2023/01/16 07:27:12;;;;;;;;;;;;;;;2.08;100.00;99186.66;4825983;58;1134687;-77
2023/01/16 07:32:18;;;;;;;3.90;2.37;;;;;;;2.12;100.00;99191.22;4869038;58;971955;-74
2023/01/16 07:37:24;;;;;;;3.57;2.23;;;;;;;2.09;100.00;99192.24;4867620;58;1132484;-82
2023/01/16 07:42:29;;;;;;;9.07;3.80;;;;;;;2.11;100.00;99190.38;4817907;58;1134735;-73
2023/01/16 07:47:36;;;;;;;7.20;3.12;;;;;;;2.15;100.00;99186.24;4814502;58;1134911;-80
2023/01/16 07:52:45;;;;;;;4.60;1.65;;;;;;;2.21;100.00;99181.48;4847343;58;1134610;-79
2023/01/16 07:57:51;;;;;;;9.70;3.43;;;;;;;2.27;100.00;99179.80;4838883;59;1134585;-77
2023/01/16 08:02:59;;;;;;;8.10;3.00;;;;;;;2.31;100.00;99181.25;4803212;58;1134559;-76
2023/01/16 08:08:05;;;;;;;18.37;7.35;;;;;;;2.37;100.00;99181.33;4932673;57;1134698;-74
2023/01/16 08:13:11;;;;;;;13.93;5.47;;;;;;;2.38;100.00;99182.53;4951492;57;1136802;-70
2023/01/16 08:18:17;;;;;;;6.87;3.27;;;;;;;2.41;100.00;99184.95;4928706;57;1136787;-75
2023/01/16 08:23:23;;;;;;;10.63;3.73;;;;;;;2.43;100.00;99174.41;4940530;57;1134574;-77
2023/01/16 08:28:29;;;;;;;5.37;2.93;;;;;;;2.46;100.00;99174.19;4955637;57;1136758;-71
2023/01/16 08:33:38;;;;;;;6.20;2.92;;;;;;;2.48;100.00;99165.33;4952647;57;1134662;-76
2023/01/16 08:38:45;;;;;;;7.72;2.60;;;;;;;2.50;100.00;99152.64;4938396;57;1134663;-70
2023/01/16 08:54:39;;;;;;;7.17;2.65;;;;;;;2.65;100.00;99144.62;4760665;59;1134823;-80
2023/01/16 08:59:46;;;;;;;6.97;3.80;;;;;;;2.81;100.00;99133.99;4946645;57;1134550;-74
2023/01/16 09:04:54;;;;;;;5.43;3.20;;;;;;;2.91;100.00;99132.41;4934782;57;1134504;-70
2023/01/16 09:10:00;;;;;;;5.10;2.83;;;;;;;3.11;100.00;99131.05;4941789;57;1134603;-73
2023/01/16 09:15:07;;;;;;;7.87;4.40;;;;;;;3.22;100.00;99132.91;4973259;57;1134661;-80
2023/01/16 09:20:13;;;;;;;9.20;3.70;;;;;;;3.29;100.00;99128.48;4923887;57;1134777;-75
2023/01/16 09:25:18;;;;;;;10.53;4.50;;;;;;;3.36;100.00;99129.70;4953287;57;1134664;-74
2023/01/16 09:30:25;;;;;;;13.60;3.13;;;;;;;3.37;100.00;99126.62;4965177;57;1136593;-76
2023/01/16 09:35:31;;;;;;;7.00;3.60;;;;;;;3.38;100.00;99119.14;4926581;57;1136843;-81
2023/01/16 09:40:38;;;;;;;28.50;13.80;;;;;;;3.37;100.00;99108.33;4930177;57;1134641;-75
2023/01/16 09:45:46;;;;;;;10.87;4.93;;;;;;;3.41;100.00;99100.64;4946785;57;1138931;-74
2023/01/16 09:50:56;;;;;;;16.55;4.85;;;;;;;3.49;100.00;99095.72;4913437;57;1237126;-76
2023/01/16 10:01:33;;;;;;;22.93;7.70;;;;;;;3.75;100.00;99086.83;4929661;57;1138903;-78
2023/01/16 10:06:46;;;;;;;8.67;3.93;;;;;;;3.91;100.00;99070.02;4958681;57;1136676;-75
2023/01/16 10:12:05;;;;;;;11.87;4.90;;;;;;;4.06;100.00;99060.58;4965598;57;1134533;-78
2023/01/16 10:17:30;;;;;;;8.63;4.10;;;;;;;4.18;100.00;99046.58;4970225;56;1136930;-79
2023/01/16 10:23:13;;;;;;;7.13;4.53;;;;;;;4.26;100.00;99043.41;5000600;57;1135054;-76
2023/01/16 10:28:40;;;;;;;11.57;4.83;;;;;;;4.34;100.00;99030.55;4829904;59;1134762;-70
2023/01/16 10:34:05;;;;;;;8.23;3.50;;;;;;;4.41;100.00;99030.94;4821664;59;1136777;-76
2023/01/16 10:39:14;;;;;;;9.73;6.12;;;;;;;4.39;100.00;99004.88;4980532;57;1134718;-80
2023/01/16 10:50:01;;;;;;;7.73;3.50;;;;;;;4.56;100.00;98993.11;4991352;57;1134519;-80
2023/01/16 10:55:10;;;;;;;11.07;4.10;;;;;;;4.63;100.00;98977.74;4883230;57;1134788;-73
2023/01/16 11:00:22;;;;;;;9.03;3.20;;;;;;;4.73;100.00;98966.45;4839969;58;1136954;-72
2023/01/16 11:05:37;;;;;;;84.90;34.13;;;;;;;4.84;100.00;98942.86;4994406;57;1134624;-72
2023/01/16 11:10:49;;;;;;;26.27;8.47;;;;;;;5.05;100.00;98930.30;5007437;57;1138746;-77
2023/01/16 11:21:20;;;;;;;9.87;3.80;;;;;;;5.27;100.00;98898.31;4972354;57;1137187;-76
2023/01/16 11:26:28;;;;;;;16.27;7.43;;;;;;;5.37;100.00;98886.59;4994896;57;1135339;-74
2023/01/16 11:31:34;;;;;;;13.70;6.07;;;;;;;5.44;100.00;98873.82;4897470;58;1136668;-79
2023/01/16 11:36:41;;;;;;;79.50;37.07;;;;;;;5.55;100.00;98858.02;5018519;57;1136928;-73
2023/01/16 11:41:51;;;;;;;7.47;2.73;;;;;;;5.76;100.00;98851.47;4994307;57;1138831;-68
2023/01/16 11:47:00;;;;;;;135.93;51.20;;;;;;;5.93;100.00;98834.68;5020520;57;1134733;-74
2023/01/16 11:52:06;;;;;;;15.98;5.75;;;;;;;6.09;100.00;98828.95;5016400;57;1141197;-71
2023/01/16 11:57:28;;;;;;;17.63;7.00;;;;;;;6.35;100.00;98830.14;5056141;57;1136892;-79
2023/01/16 12:02:47;;;;;;;12.93;4.60;;;;;;;6.50;100.00;98820.09;5024749;57;1138834;-77
2023/01/16 12:08:23;;;;;;;193.23;72.77;;;;;;;6.46;100.00;98806.88;5055832;57;1138728;-79
2023/01/16 12:19:29;;;;;;;11.57;6.07;;;;;;;7.16;100.00;98802.39;5029189;58;1138700;-73
2023/01/16 12:24:44;;;;;;;38.10;13.90;;;;;;;7.51;100.00;98789.93;5031237;57;1136934;-78
2023/01/16 12:30:01;;;;;;;115.03;31.75;;;;;;;7.93;100.00;98779.86;4963476;57;1138615;-80
2023/01/16 12:35:26;;;;;;;101.93;30.23;;;;;;;8.07;99.55;98768.84;5025501;57;1141036;-77
2023/01/16 12:40:48;;;;;;;22.27;7.40;;;;;;;8.35;100.00;98755.20;5033530;57;1138750;-73
2023/01/16 12:46:10;;;;;;;141.70;40.63;;;;;;;8.59;99.35;98750.67;5038245;57;1137106;-75
2023/01/16 12:51:38;;;;;;;79.97;27.13;;;;;;;8.79;100.00;98737.20;5042456;57;1138983;-77
2023/01/16 12:57:14;;;;;;;30.33;12.87;;;;;;;9.16;99.35;98736.20;5041734;57;1140771;-77
2023/01/16 13:02:29;;;;;;;17.13;8.27;;;;;;;9.53;94.58;98729.34;5029173;57;1138888;-71
2023/01/16 13:07:43;;;;;;;71.77;20.90;;;;;;;9.62;92.83;98716.55;5020958;57;1136640;-75
2023/01/16 13:18:29;;;;;;;18.17;7.50;;;;;;;10.06;94.86;98707.99;4972814;57;971873;-81
2023/01/16 13:23:48;;;;;;;94.50;25.77;;;;;;;10.06;92.94;98696.11;4933602;57;1233104;-73
2023/01/16 13:29:31;;;;;;;19.85;8.20;;;;;;;10.07;91.18;98679.77;4959137;57;1140857;-75
2023/01/16 13:34:41;;;;;;;13.20;5.73;;;;;;;10.07;91.18;98679.77;4972162;57;1139219;-82
2023/01/16 13:40:03;;;;;;;22.37;9.10;;;;;;;9.98;89.63;98677.58;4930523;57;1138651;-71
2023/01/16 13:50:37;;;;;;;11.77;5.50;;;;;;;9.41;92.22;98665.46;5008367;57;1136717;-75
2023/01/16 13:55:44;;;;;;;13.80;5.50;;;;;;;9.57;92.20;98648.05;5053724;57;1137040;-79
2023/01/16 14:00:59;;;;;;;16.97;6.93;;;;;;;8.70;91.99;98644.56;5030359;57;1134912;-73
2023/01/16 14:06:21;;;;;;;16.07;7.70;;;;;;;8.05;97.13;98633.41;5039571;57;1134770;-82
2023/01/16 14:11:57;;;;;;;67.63;10.50;;;;;;;8.33;99.01;98634.19;5041422;57;1134564;-78
2023/01/16 14:17:03;;;;;;;17.93;7.63;;;;;;;7.86;99.22;98619.05;4976858;57;1136839;-76
2023/01/16 14:27:24;;;;;;;14.27;6.57;;;;;;;7.08;100.00;98621.69;4964751;57;1138736;-72
2023/01/16 14:32:35;;;;;;;31.87;14.07;;;;;;;6.78;100.00;98616.66;4977305;57;1138867;-75
2023/01/16 14:37:48;;;;;;;15.67;6.27;;;;;;;6.51;100.00;98608.20;5041147;57;1138935;-70
2023/01/16 15:00:02;;;;;;;26.13;8.53;;;;;;;5.61;100.00;98583.48;4961850;57;1139139;-70
2023/01/16 15:05:25;;;;;;;17.70;6.60;;;;;;;5.40;100.00;98563.06;4969458;57;1137142;-71
2023/01/16 15:10:39;;;;;;;20.60;7.70;;;;;;;5.27;100.00;98569.38;4967492;58;1136916;-73
2023/01/16 15:15:50;;;;;;;33.37;8.43;;;;;;;5.11;100.00;98559.05;4911828;57;1136843;-78
2023/01/16 15:26:27;;;;;;;17.30;6.20;;;;;;;4.94;100.00;98552.16;5002036;56;1136665;-73
2023/01/16 15:31:37;;;;;;;20.00;8.23;;;;;;;4.91;100.00;98541.94;4953449;57;1136832;-71
2023/01/16 15:36:48;;;;;;;22.47;9.07;;;;;;;4.90;100.00;98535.52;4987498;57;1136787;-71
2023/01/16 15:47:46;;;;;;;48.27;21.07;;;;;;;4.64;100.00;98521.21;5006165;57;1138665;-75
2023/01/16 15:52:52;;;;;;;55.27;30.53;;;;;;;4.58;100.00;98519.97;5039050;57;1138834;-78
2023/01/16 15:58:03;;;;;;;61.10;26.90;;;;;;;4.56;100.00;98511.41;5028114;57;1140855;-73
2023/01/16 16:03:21;;;;;;;31.40;12.73;;;;;;;4.52;100.00;98510.83;5014344;57;1138782;-75
2023/01/16 16:08:30;;;;;;;103.80;40.43;;;;;;;4.41;100.00;98508.30;5031122;57;1138780;-75
2023/01/16 16:13:37;;;;;;;140.33;61.57;;;;;;;4.38;100.00;98502.48;5004077;57;1141003;-74
2023/01/16 16:18:57;;;;;;;91.37;37.27;;;;;;;4.32;100.00;98493.83;4904273;57;1140991;-76
2023/01/16 16:24:08;;;;;;;39.50;15.47;;;;;;;4.24;100.00;98482.23;4981811;57;1138919;-73
2023/01/16 16:29:21;;;;;;;38.95;16.70;;;;;;;4.20;100.00;98484.75;5023145;57;1138697;-74
2023/01/16 16:34:29;;;;;;;35.20;14.50;;;;;;;4.12;100.00;98482.45;4944127;57;1138750;-71
2023/01/16 16:40:08;;;;;;;29.10;12.67;;;;;;;4.05;100.00;98476.88;4996527;57;1138729;-75
2023/01/16 16:45:26;;;;;;;35.55;13.90;;;;;;;4.00;100.00;98471.20;4967130;57;1138972;-76
2023/01/16 16:50:36;;;;;;;30.23;13.47;;;;;;;3.93;100.00;98461.39;4942668;58;1139200;-77
2023/01/16 16:55:52;;;;;;;52.43;19.50;;;;;;;3.90;100.00;98458.55;4923199;58;1138752;-72
2023/01/16 17:00:58;;;;;;;48.70;19.07;;;;;;;3.88;100.00;98455.22;4920302;58;1139184;-73
2023/01/16 17:06:05;;;;;;;48.27;19.13;;;;;;;3.83;100.00;98444.30;4923255;58;1138848;-76
2023/01/16 17:11:15;;;;;;;38.37;18.40;;;;;;;3.78;100.00;98445.19;4943053;58;1138813;-74
2023/01/16 17:16:25;;;;;;;35.52;15.58;;;;;;;3.74;100.00;98446.39;4965477;57;1138663;-75
2023/01/16 17:21:31;;;;;;;39.78;16.40;;;;;;;3.74;100.00;98433.31;5004815;57;1139034;-73
2023/01/16 17:26:38;;;;;;;35.60;16.37;;;;;;;3.69;100.00;98431.55;5014275;57;1138777;-71
2023/01/16 17:31:46;;;;;;;36.60;15.50;;;;;;;3.62;100.00;98419.96;4962129;57;1138869;-74
2023/01/16 17:36:53;;;;;;;44.30;17.60;;;;;;;3.57;100.00;98419.50;4941980;57;1138808;-70
2023/01/16 17:47:05;;;;;;;33.53;13.50;;;;;;;3.46;100.00;98417.30;4859107;58;1138706;-75
2023/01/16 17:52:11;;;;;;;30.23;13.40;;;;;;;3.41;100.00;98403.77;4798681;59;1148624;-73
2023/01/16 17:57:17;;;;;;;38.53;15.03;;;;;;;3.40;100.00;98395.58;4763411;60;1139084;-74
2023/01/16 18:02:22;;;;;;;33.18;13.83;;;;;;;3.38;100.00;98388.82;4871637;59;1138954;-70
2023/01/16 18:07:28;;;;;;;29.47;12.73;;;;;;;3.32;100.00;98390.17;4811495;59;1139008;-72
2023/01/16 18:17:58;;;;;;;34.47;15.23;;;;;;;3.17;100.00;98371.83;4825786;59;1138829;-74
2023/01/16 18:23:03;;;;;;;38.23;16.67;;;;;;;3.12;100.00;98357.00;4827526;60;1138795;-70
2023/01/16 18:28:10;;;;;;;48.63;19.07;;;;;;;3.06;100.00;98358.31;4807358;59;1138738;-76
2023/01/16 18:33:16;;;;;;;50.00;18.60;;;;;;;3.00;100.00;98361.92;4847436;58;1138797;-74
2023/01/16 19:05:21;;;;;;;36.98;17.23;;;;;;;2.77;100.00;98314.16;4998925;57;1139528;-68
2023/01/16 19:10:34;;;;;;;35.70;16.67;;;;;;;2.72;100.00;98312.42;4999153;57;1138886;-80
2023/01/16 19:16:43;;;;;;;40.00;16.73;;;;;;;2.64;100.00;98310.89;5020190;56;1138714;-75
2023/01/16 19:20:47;;;;;;;38.40;16.40;;;;;;;2.60;100.00;98299.06;5056638;58;1138958;-75
2023/01/16 19:25:53;;;;;;;45.17;19.43;;;;;;;2.56;100.00;98287.20;5060290;57;1138706;-77
2023/01/16 19:30:58;;;;;;;44.80;17.27;;;;;;;2.50;100.00;98270.25;5081735;57;1138815;-74
2023/01/16 19:36:05;;;;;;;49.07;20.40;;;;;;;2.43;100.00;98265.20;4982563;57;1138986;-80
2023/01/16 19:46:43;;;;;;;50.35;19.95;;;;;;;2.35;100.00;98251.45;5024586;57;1138787;-73
2023/01/16 19:51:49;;;;;;;43.97;18.30;;;;;;;2.29;100.00;98236.27;4958514;57;1138765;-71
2023/01/16 19:56:56;;;;;;;39.55;17.87;;;;;;;2.22;100.00;98223.39;4978798;57;1138892;-75
2023/01/16 20:02:07;;;;;;;35.83;17.02;;;;;;;2.18;100.00;98217.23;5004700;57;1138852;-70
2023/01/16 20:07:14;;;;;;;40.73;17.40;;;;;;;2.13;100.00;98210.27;4817428;59;1138941;-78
2023/01/16 20:12:23;;;;;;;40.05;17.25;;;;;;;2.06;100.00;98196.89;4835091;59;1138816;-74
2023/01/16 20:17:33;;;;;;;44.37;19.23;;;;;;;2.04;100.00;98184.45;4886448;58;1138826;-72
2023/01/16 20:22:41;;;;;;;50.27;20.30;;;;;;;2.02;100.00;98178.05;4755524;60;1138773;-78
2023/01/16 20:27:46;;;;;;;43.73;20.90;;;;;;;2.02;100.00;98170.70;4845910;59;1138861;-73
2023/01/16 20:32:52;;;;;;;47.80;20.27;;;;;;;1.94;100.00;98156.99;4994590;57;1138731;-75
2023/01/16 20:37:58;;;;;;;54.33;22.43;;;;;;;1.94;100.00;98154.39;4911903;58;1138656;-77
2023/01/16 20:48:29;;;;;;;45.67;17.62;;;;;;;1.90;100.00;98136.50;4978878;57;1138855;-71
2023/01/16 20:53:36;;;;;;;45.40;19.47;;;;;;;1.89;100.00;98133.06;4964369;57;1138770;-70
2023/01/16 20:58:45;;;;;;;45.77;21.37;;;;;;;1.90;100.00;98133.89;4832036;59;1138729;-73
2023/01/16 21:03:52;;;;;;;57.43;24.82;;;;;;;1.85;100.00;98118.62;4845518;59;1138854;-75
2023/01/16 21:08:59;;;;;;;41.90;20.53;;;;;;;1.82;100.00;98129.31;4847379;58;1138745;-71
2023/01/16 21:14:10;;;;;;;50.52;20.43;;;;;;;1.84;100.00;98133.07;4760471;59;1138739;-80
2023/01/16 21:24:41;;;;;;;50.70;24.30;;;;;;;1.79;100.00;98138.67;4835706;59;1138743;-75
2023/01/16 21:29:46;;;;;;;58.93;26.87;;;;;;;1.77;100.00;98132.75;4874705;59;1138816;-80
2023/01/16 21:34:53;;;;;;;51.40;24.73;;;;;;;1.78;100.00;98124.45;4901999;58;1138729;-68
2023/01/16 21:39:59;;;;;;;49.67;24.00;;;;;;;1.81;100.00;98112.02;4870442;59;1138795;-72
2023/01/16 21:50:30;;;;;;;41.02;21.55;;;;;;;1.77;100.00;98098.88;4893816;59;1138774;-72
2023/01/16 21:55:35;;;;;;;47.17;23.95;;;;;;;1.78;100.00;98095.32;4874533;59;1138989;-73
2023/01/16 22:00:41;;;;;;;48.37;25.47;;;;;;;1.79;100.00;98108.70;4874723;59;1138745;-72
2023/01/16 22:05:47;;;;;;;45.73;24.80;;;;;;;1.78;100.00;98094.49;4893810;59;1138784;-73
2023/01/16 22:21:43;;;;;;;40.40;22.53;;;;;;;1.83;100.00;98076.25;4797078;59;1139012;-79
2023/01/16 22:26:49;;;;;;;37.28;22.00;;;;;;;1.94;100.00;98075.37;4827274;60;1139009;-81
2023/01/16 22:31:56;;;;;;;35.03;20.40;;;;;;;1.96;100.00;98063.03;4766147;60;1138864;-76
2023/01/16 22:37:02;;;;;;;35.03;21.10;;;;;;;1.97;100.00;98055.09;4701017;61;1138736;-76
2023/01/16 22:42:07;;;;;;;33.80;20.35;;;;;;;2.01;100.00;98042.14;4774621;60;1138919;-76
2023/01/16 22:47:13;;;;;;;33.80;21.37;;;;;;;2.04;100.00;98040.59;4792159;60;1138854;-75
2023/01/16 22:52:19;;;;;;;33.07;20.50;;;;;;;2.05;100.00;98027.08;4701252;60;1138758;-78
2023/01/16 22:57:25;;;;;;;36.63;21.45;;;;;;;2.08;100.00;98010.72;4773629;60;1138957;-75
2023/01/16 23:02:32;;;;;;;40.23;22.33;;;;;;;2.13;100.00;97990.79;4720160;60;1138672;-74
2023/01/16 23:07:38;;;;;;;33.25;19.40;;;;;;;2.17;100.00;97993.94;4773841;60;1139078;-79
2023/01/16 23:12:44;;;;;;;33.90;20.90;;;;;;;2.22;100.00;97987.40;4701825;60;1138709;-71
2023/01/16 23:17:51;;;;;;;37.20;21.37;;;;;;;2.22;100.00;97986.57;4739703;60;1138993;-78
2023/01/16 23:22:57;;;;;;;27.73;16.20;;;;;;;2.20;100.00;97974.96;4700731;60;1138941;-72
2023/01/16 23:28:04;;;;;;;28.70;16.53;;;;;;;2.23;100.00;97966.89;4701861;60;1139035;-77
2023/01/16 23:33:09;;;;;;;26.30;15.63;;;;;;;2.29;100.00;97960.34;4793482;60;1139127;-69
2023/01/16 23:38:15;;;;;;;25.17;15.00;;;;;;;2.27;100.00;97942.69;4774813;60;1138808;-70
2023/01/16 23:48:52;;;;;;;26.02;15.60;;;;;;;2.26;100.00;97911.05;4795024;59;1138933;-79
2023/01/16 23:53:57;;;;;;;;;;;;;;;2.29;100.00;97900.36;4779519;59;1139037;-76
2023/01/16 23:59:03;;;;;;;28.40;15.85;;;;;;;2.33;100.00;97892.13;4794461;59;972088;-73
